createdAt,value
2018-12-24T00:02:29.925Z,12.30
2018-12-24T00:05:19.707Z,12.30
2018-12-24T00:08:01.651Z,12.30
2018-12-24T00:10:51.262Z,12.30
2018-12-24T00:13:33.854Z,12.30
2018-12-24T00:16:23.480Z,12.30
2018-12-24T00:19:06.053Z,12.30
2018-12-24T00:21:55.611Z,12.30
2018-12-24T00:24:37.938Z,12.30
2018-12-24T00:27:27.507Z,12.30
2018-12-24T00:30:09.569Z,12.30
2018-12-24T00:35:58.424Z,12.30
2018-12-24T00:38:40.563Z,12.30
2018-12-24T00:44:40.975Z,12.20
2018-12-24T00:47:51.158Z,12.20
2018-12-24T00:50:40.779Z,12.20
2018-12-24T00:53:22.587Z,12.20
2018-12-24T00:56:31.093Z,12.20
2018-12-24T00:59:13.532Z,12.20
2018-12-24T01:05:11.364Z,12.20
2018-12-24T01:08:00.967Z,12.20
2018-12-24T01:10:42.950Z,12.20
2018-12-24T01:13:32.589Z,12.00
2018-12-24T01:16:15.098Z,12.20
2018-12-24T01:19:04.661Z,12.00
2018-12-24T01:21:46.754Z,12.20
2018-12-24T01:24:36.334Z,12.20
2018-12-24T01:27:18.553Z,12.20
2018-12-24T01:33:16.363Z,12.10
2018-12-24T01:36:05.983Z,12.10
2018-12-24T01:38:48.510Z,12.10
2018-12-24T01:41:38.065Z,12.10
2018-12-24T01:44:20.768Z,12.10
2018-12-24T01:47:10.443Z,12.00
2018-12-24T01:49:52.659Z,12.00
2018-12-24T01:52:42.261Z,12.00
2018-12-24T01:55:24.449Z,12.00
2018-12-24T01:58:14.044Z,12.00
2018-12-24T02:00:56.516Z,12.00
2018-12-24T02:03:46.164Z,12.00
2018-12-24T02:06:28.607Z,12.00
2018-12-24T02:09:18.246Z,11.80
2018-12-24T02:12:07.863Z,12.00
2018-12-24T02:14:50.251Z,12.00
2018-12-24T02:17:39.803Z,11.80
2018-12-24T02:20:22.437Z,12.00
2018-12-24T02:23:12.013Z,12.00
2018-12-24T02:25:54.697Z,12.00
2018-12-24T02:28:44.288Z,12.00
2018-12-24T02:31:26.903Z,12.00
2018-12-24T02:34:16.611Z,12.00
2018-12-24T02:36:58.448Z,12.00
2018-12-24T02:39:48.044Z,12.00
2018-12-24T02:42:37.811Z,12.00
2018-12-24T02:45:20.166Z,12.00
2018-12-24T02:48:28.813Z,12.00
2018-12-24T02:51:10.860Z,12.00
2018-12-24T02:54:00.459Z,12.00
2018-12-24T02:56:42.197Z,12.00
2018-12-24T02:59:31.730Z,12.00
2018-12-24T03:02:14.295Z,12.00
2018-12-24T03:08:31.851Z,12.00
2018-12-24T03:11:03.619Z,12.00
2018-12-24T03:17:01.101Z,11.70
2018-12-24T03:19:50.704Z,11.90
2018-12-24T03:22:33.062Z,11.90
2018-12-24T03:25:22.628Z,11.90
2018-12-24T03:28:12.219Z,11.90
2018-12-24T03:30:54.014Z,11.90
2018-12-24T03:33:43.578Z,11.90
2018-12-24T03:36:26.261Z,11.80
2018-12-24T03:42:24.216Z,11.80
2018-12-24T03:45:13.762Z,11.80
2018-12-24T03:47:55.536Z,11.70
2018-12-24T03:50:45.128Z,11.70
2018-12-24T03:53:27.346Z,11.70
2018-12-24T03:56:17.001Z,11.70
2018-12-24T03:58:58.999Z,11.70
2018-12-24T04:01:48.623Z,11.70
2018-12-24T04:04:31.050Z,11.70
2018-12-24T04:07:20.669Z,11.70
2018-12-24T04:10:03.480Z,11.70
2018-12-24T04:12:55.426Z,11.50
2018-12-24T04:15:45.190Z,11.50
2018-12-24T04:18:27.716Z,11.70
2018-12-24T04:21:17.361Z,11.70
2018-12-24T04:23:59.676Z,11.70
2018-12-24T04:26:49.228Z,11.70
2018-12-24T04:29:38.817Z,11.70
2018-12-24T04:32:21.502Z,11.70
2018-12-24T04:35:11.099Z,11.60
2018-12-24T04:37:53.695Z,11.60
2018-12-24T04:43:51.178Z,11.50
2018-12-24T04:46:40.777Z,11.50
2018-12-24T04:49:23.031Z,11.50
2018-12-24T04:52:12.662Z,11.50
2018-12-24T04:54:54.887Z,11.50
2018-12-24T05:00:51.787Z,11.50
2018-12-24T05:03:41.362Z,11.40
2018-12-24T05:06:23.870Z,11.20
2018-12-24T05:09:13.399Z,11.40
2018-12-24T05:11:56.059Z,11.40
2018-12-24T05:14:45.963Z,11.30
2018-12-24T05:17:27.762Z,11.00
2018-12-24T05:20:17.493Z,11.20
2018-12-24T05:22:59.739Z,11.10
2018-12-24T05:25:49.368Z,10.90
2018-12-24T05:28:31.870Z,10.80
2018-12-24T05:31:21.443Z,10.70
2018-12-24T05:34:03.421Z,10.60
2018-12-24T05:36:53.048Z,10.50
2018-12-24T05:39:35.336Z,10.50
2018-12-24T05:45:19.230Z,10.10
2018-12-24T05:48:08.874Z,10.30
2018-12-24T05:50:58.592Z,10.20
2018-12-24T05:53:41.043Z,10.10
2018-12-24T05:56:30.651Z,10.10
2018-12-24T05:59:13.219Z,10.10
2018-12-24T06:05:03.462Z,10.10
2018-12-24T06:07:53.162Z,10.20
2018-12-24T06:10:35.467Z,10.20
2018-12-24T06:13:25.106Z,10.20
2018-12-24T06:16:07.316Z,10.20
2018-12-24T06:18:56.975Z,10.30
2018-12-24T06:21:39.409Z,10.30
2018-12-24T06:24:28.984Z,10.30
2018-12-24T06:27:11.416Z,10.30
2018-12-24T06:30:01.464Z,10.30
2018-12-24T06:32:44.144Z,10.30
2018-12-24T06:39:02.795Z,10.30
2018-12-24T06:41:52.522Z,10.30
2018-12-24T06:44:42.302Z,10.30
2018-12-24T06:47:26.910Z,10.40
2018-12-24T06:50:16.484Z,10.40
2018-12-24T06:52:58.903Z,10.40
2018-12-24T06:58:51.355Z,10.20
2018-12-24T07:01:41.121Z,10.20
2018-12-24T07:04:23.907Z,10.10
2018-12-24T07:07:13.514Z,10.20
2018-12-24T07:09:55.711Z,10.20
2018-12-24T07:12:38.364Z,10.20
2018-12-24T07:18:38.234Z,10.30
2018-12-24T07:21:28.528Z,10.30
2018-12-24T07:24:11.144Z,10.30
2018-12-24T07:27:01.155Z,10.30
2018-12-24T07:29:43.332Z,10.30
2018-12-24T07:32:32.950Z,10.30
2018-12-24T07:35:15.510Z,10.30
2018-12-24T07:38:05.090Z,10.20
2018-12-24T07:40:47.675Z,10.20
2018-12-24T07:43:37.224Z,10.00
2018-12-24T07:46:19.891Z,10.30
2018-12-24T07:49:09.440Z,10.30
2018-12-24T07:51:51.674Z,10.30
2018-12-24T07:57:29.490Z,10.30
2018-12-24T08:00:19.082Z,10.30
2018-12-24T08:03:01.404Z,10.30
2018-12-24T08:05:51.054Z,10.30
2018-12-24T08:08:33.116Z,10.30
2018-12-24T08:11:15.701Z,10.30
2018-12-24T08:14:05.328Z,10.30
2018-12-24T08:16:47.731Z,10.20
2018-12-24T08:19:37.406Z,10.30
2018-12-24T08:22:19.629Z,10.30
2018-12-24T08:25:09.193Z,10.20
2018-12-24T08:27:51.129Z,10.20
2018-12-24T08:30:40.748Z,10.20
2018-12-24T08:33:22.632Z,10.20
2018-12-24T08:36:12.167Z,10.20
2018-12-24T08:38:54.606Z,10.20
2018-12-24T08:41:44.282Z,10.20
2018-12-24T08:44:26.325Z,10.20
2018-12-24T08:47:16.064Z,10.10
2018-12-24T08:49:58.116Z,10.10
2018-12-24T08:52:47.746Z,10.10
2018-12-24T08:55:29.772Z,10.10
2018-12-24T08:58:19.341Z,10.10
2018-12-24T09:01:01.721Z,10.10
2018-12-24T09:03:53.029Z,10.10
2018-12-24T09:06:35.879Z,10.10
2018-12-24T09:09:25.576Z,10.10
2018-12-24T09:12:07.558Z,10.10
2018-12-24T09:17:58.091Z,10.10
2018-12-24T09:20:52.628Z,10.10
2018-12-24T09:23:31.181Z,10.10
2018-12-24T09:26:20.926Z,10.00
2018-12-24T09:29:03.106Z,10.00
2018-12-24T09:31:52.711Z,10.00
2018-12-24T09:34:34.483Z,9.90
2018-12-24T09:37:23.989Z,9.90
2018-12-24T09:40:06.886Z,9.80
2018-12-24T09:42:56.535Z,9.80
2018-12-24T09:45:46.090Z,9.80
2018-12-24T09:48:35.688Z,9.80
2018-12-24T09:51:28.067Z,9.70
2018-12-24T09:54:09.799Z,9.70
2018-12-24T09:56:59.316Z,9.60
2018-12-24T09:59:41.761Z,9.60
2018-12-24T10:02:37.750Z,9.60
2018-12-24T10:05:22.148Z,9.50
2018-12-24T10:11:23.317Z,9.40
2018-12-24T10:14:12.882Z,9.40
2018-12-24T10:16:55.126Z,9.40
2018-12-24T10:19:45.160Z,9.40
2018-12-24T10:22:27.375Z,9.40
2018-12-24T10:25:37.076Z,9.40
2018-12-24T10:28:19.236Z,9.40
2018-12-24T10:31:08.939Z,9.50
2018-12-24T10:33:51.888Z,9.50
2018-12-24T10:37:00.563Z,9.50
2018-12-24T10:39:42.651Z,9.50
2018-12-24T10:42:32.260Z,9.50
2018-12-24T10:45:16.705Z,9.60
2018-12-24T10:48:05.587Z,9.60
2018-12-24T10:50:48.059Z,9.60
2018-12-24T10:53:40.308Z,9.70
2018-12-24T10:56:22.960Z,9.70
2018-12-24T11:02:20.514Z,9.60
2018-12-24T11:05:10.474Z,9.40
2018-12-24T11:07:54.301Z,9.70
2018-12-24T11:10:36.842Z,9.70
2018-12-24T11:16:35.015Z,9.70
2018-12-24T11:19:47.153Z,9.70
2018-12-24T11:22:29.684Z,9.70
2018-12-24T11:25:21.250Z,9.80
2018-12-24T11:31:46.510Z,9.80
2018-12-24T11:37:24.097Z,9.70
2018-12-24T11:40:16.902Z,9.70
2018-12-24T11:42:59.616Z,9.70
2018-12-24T11:45:52.364Z,9.70
2018-12-24T11:48:38.181Z,9.70
2018-12-24T11:54:36.200Z,9.70
2018-12-24T11:57:26.238Z,9.70
2018-12-24T12:00:18.015Z,9.70
2018-12-24T12:02:59.908Z,9.60
2018-12-24T12:05:53.996Z,9.70
2018-12-24T12:08:37.226Z,9.70
2018-12-24T12:11:21.043Z,9.70
2018-12-24T12:14:11.241Z,9.60
2018-12-24T12:16:53.747Z,9.60
2018-12-24T12:19:43.682Z,9.50
2018-12-24T12:22:26.094Z,9.50
2018-12-24T12:25:16.081Z,9.50
2018-12-24T12:28:00.179Z,9.50
2018-12-24T12:33:58.534Z,9.30
2018-12-24T12:36:52.766Z,9.40
2018-12-24T12:39:36.828Z,9.40
2018-12-24T12:42:28.474Z,9.40
2018-12-24T12:45:11.268Z,9.20
2018-12-24T12:48:00.780Z,9.40
2018-12-24T12:50:50.521Z,9.40
2018-12-24T12:53:33.095Z,9.40
2018-12-24T12:59:33.614Z,9.40
2018-12-24T13:02:23.185Z,9.40
2018-12-24T13:05:06.531Z,9.40
2018-12-24T13:10:50.487Z,9.30
2018-12-24T13:14:00.625Z,9.30
2018-12-24T13:16:50.733Z,9.20
2018-12-24T13:19:32.559Z,9.20
2018-12-24T13:22:23.049Z,9.20
2018-12-24T13:25:05.508Z,8.90
2018-12-24T13:27:56.891Z,9.20
2018-12-24T13:33:53.974Z,9.10
2018-12-24T13:36:43.713Z,9.10
2018-12-24T13:39:27.073Z,9.00
2018-12-24T13:42:35.726Z,9.00
2018-12-24T13:45:23.312Z,9.00
2018-12-24T13:48:12.875Z,9.00
2018-12-24T13:50:55.307Z,8.90
2018-12-24T13:53:44.882Z,8.90
2018-12-24T13:56:27.946Z,8.90
2018-12-24T14:02:20.768Z,8.90
2018-12-24T14:08:02.393Z,8.70
2018-12-24T14:10:44.468Z,8.90
2018-12-24T14:13:34.076Z,8.80
2018-12-24T14:16:17.839Z,8.80
2018-12-24T14:22:04.175Z,8.70
2018-12-24T14:24:53.779Z,8.70
2018-12-24T14:28:03.058Z,8.70
2018-12-24T14:30:45.038Z,8.60
2018-12-24T14:33:36.734Z,8.70
2018-12-24T14:36:18.458Z,8.70
2018-12-24T14:39:08.333Z,8.70
2018-12-24T14:41:50.054Z,8.70
2018-12-24T14:44:39.610Z,8.70
2018-12-24T14:47:21.482Z,8.70
2018-12-24T14:50:11.083Z,8.60
2018-12-24T14:52:53.724Z,8.60
2018-12-24T14:55:43.286Z,8.60
2018-12-24T14:58:25.919Z,8.30
2018-12-24T15:01:34.849Z,8.60
2018-12-24T15:04:17.361Z,8.60
2018-12-24T15:10:09.259Z,8.50
2018-12-24T15:12:51.677Z,8.60
2018-12-24T15:15:41.296Z,8.60
2018-12-24T15:18:24.276Z,8.60
2018-12-24T15:21:14.335Z,8.60
2018-12-24T15:23:58.789Z,8.60
2018-12-24T15:26:49.538Z,8.60
2018-12-24T15:29:32.911Z,8.60
2018-12-24T15:32:22.782Z,8.60
2018-12-24T15:35:05.561Z,8.60
2018-12-24T15:40:57.970Z,8.60
2018-12-24T15:43:48.655Z,8.60
2018-12-24T15:46:31.208Z,8.60
2018-12-24T15:49:21.255Z,8.60
2018-12-24T15:52:06.523Z,8.50
2018-12-24T15:54:56.139Z,8.60
2018-12-24T15:57:37.927Z,8.60
2018-12-24T16:00:27.536Z,8.60
2018-12-24T16:03:17.129Z,8.60
2018-12-24T16:06:48.148Z,8.60
2018-12-24T16:09:30.983Z,8.30
2018-12-24T16:12:13.193Z,8.60
2018-12-24T16:15:22.134Z,8.70
2018-12-24T16:18:15.482Z,8.70
2018-12-24T16:21:05.982Z,8.70
2018-12-24T16:23:48.650Z,8.60
2018-12-24T16:26:31.046Z,8.60
2018-12-24T16:29:21.611Z,8.60
2018-12-24T16:32:04.615Z,8.60
2018-12-24T16:34:56.479Z,8.60
2018-12-24T16:37:38.548Z,8.60
2018-12-24T16:40:47.157Z,8.60
2018-12-24T16:43:29.154Z,8.60
2018-12-24T16:46:18.761Z,8.70
2018-12-24T16:49:01.331Z,8.40
2018-12-24T16:51:52.498Z,8.70
2018-12-24T16:54:35.746Z,8.40
2018-12-24T16:57:25.396Z,8.70
2018-12-24T17:00:08.851Z,8.70
2018-12-24T17:06:06.622Z,8.60
2018-12-24T17:08:56.196Z,8.60
2018-12-24T17:11:39.993Z,8.60
2018-12-24T17:14:50.554Z,8.70
2018-12-24T17:17:33.220Z,8.40
2018-12-24T17:23:31.547Z,8.70
2018-12-24T17:29:30.343Z,8.70
2018-12-24T17:32:40.747Z,8.50
2018-12-24T17:35:30.539Z,8.70
2018-12-24T17:41:28.075Z,8.70
2018-12-24T17:44:18.098Z,8.70
2018-12-24T17:47:00.999Z,8.70
2018-12-24T17:50:09.592Z,8.70
2018-12-24T17:52:52.289Z,8.70
2018-12-24T17:56:21.642Z,8.70
2018-12-24T17:59:06.330Z,8.70
2018-12-24T18:01:58.522Z,8.70
2018-12-24T18:04:43.468Z,8.40
2018-12-24T18:07:34.009Z,8.70
2018-12-24T18:10:16.726Z,8.70
2018-12-24T18:12:59.120Z,8.70
2018-12-24T18:15:49.042Z,8.70
2018-12-24T18:18:32.561Z,8.70
2018-12-24T18:21:24.227Z,8.40
2018-12-24T18:24:06.431Z,8.70
2018-12-24T18:27:19.344Z,8.70
2018-12-24T18:30:01.939Z,8.40
2018-12-24T18:32:52.604Z,8.70
2018-12-24T18:35:35.402Z,8.70
2018-12-24T18:38:29.375Z,8.70
2018-12-24T18:41:12.437Z,8.70
2018-12-24T18:44:04.608Z,8.70
2018-12-24T18:46:48.432Z,8.70
2018-12-24T18:49:38.181Z,8.70
2018-12-24T18:52:20.591Z,8.70
2018-12-24T18:55:10.309Z,8.70
2018-12-24T18:57:53.068Z,8.40
2018-12-24T19:00:54.990Z,8.70
2018-12-24T19:06:56.370Z,8.70
2018-12-24T19:09:46.258Z,8.70
2018-12-24T19:12:30.825Z,8.70
2018-12-24T19:15:20.478Z,8.70
2018-12-24T19:18:04.340Z,8.70
2018-12-24T19:24:02.620Z,8.70
2018-12-24T19:26:52.613Z,8.70
2018-12-24T19:29:42.781Z,8.70
2018-12-24T19:32:26.060Z,8.70
2018-12-24T19:35:36.162Z,8.70
2018-12-24T19:38:21.617Z,8.70
2018-12-24T19:41:13.877Z,8.70
2018-12-24T19:43:56.744Z,8.70
2018-12-24T19:49:53.810Z,8.70
2018-12-24T19:53:04.831Z,8.70
2018-12-24T19:56:01.030Z,8.70
2018-12-24T20:02:11.844Z,8.70
2018-12-24T20:05:14.173Z,8.70
2018-12-24T20:08:35.602Z,8.70
2018-12-24T20:11:09.773Z,8.70
2018-12-24T20:14:02.937Z,8.80
2018-12-24T20:16:53.551Z,8.70
2018-12-24T20:19:46.664Z,8.50
2018-12-24T20:22:33.880Z,8.80
2018-12-24T20:25:42.923Z,8.80
2018-12-24T20:28:27.105Z,8.70
2018-12-24T20:31:46.551Z,8.50
2018-12-24T20:34:28.834Z,8.70
2018-12-24T20:37:21.241Z,8.80
2018-12-24T20:40:06.909Z,8.80
2018-12-24T20:42:56.711Z,8.80
2018-12-24T20:45:46.514Z,8.80
2018-12-24T20:48:56.851Z,8.80
2018-12-24T20:51:39.601Z,8.80
2018-12-24T20:54:31.458Z,8.80
2018-12-24T20:57:14.544Z,8.70
2018-12-24T21:00:16.862Z,8.70
2018-12-24T21:02:48.269Z,8.70
2018-12-24T21:05:38.304Z,8.50
2018-12-24T21:08:29.812Z,8.70
2018-12-24T21:11:12.167Z,8.40
2018-12-24T21:14:22.651Z,8.70
2018-12-24T21:17:05.533Z,8.70
2018-12-24T21:20:14.222Z,8.70
2018-12-24T21:22:56.972Z,8.70
2018-12-24T21:25:46.586Z,8.70
2018-12-24T21:28:29.175Z,8.70
2018-12-24T21:31:20.671Z,8.70
2018-12-24T21:34:03.135Z,8.70
2018-12-24T21:36:52.430Z,8.70
2018-12-24T21:42:54.541Z,8.60
2018-12-24T21:45:41.418Z,8.70
2018-12-24T21:48:24.221Z,8.60
2018-12-24T21:54:09.978Z,8.70
2018-12-24T21:56:41.487Z,8.70
2018-12-24T21:59:20.027Z,8.70
2018-12-24T22:01:50.702Z,8.70
2018-12-24T22:04:25.007Z,8.70
2018-12-24T22:06:56.081Z,8.70
2018-12-24T22:09:30.087Z,8.70
2018-12-24T22:12:03.963Z,8.70
2018-12-24T22:14:36.554Z,8.70
2018-12-24T22:17:12.370Z,8.70
2018-12-24T22:19:50.271Z,8.70
2018-12-24T22:22:28.282Z,8.70
2018-12-24T22:25:04.690Z,8.70
2018-12-24T22:27:40.009Z,8.70
2018-12-24T22:30:19.397Z,8.70
2018-12-24T22:32:57.793Z,8.70
2018-12-24T22:35:29.391Z,8.70
2018-12-24T22:38:04.475Z,8.70
2018-12-24T22:40:36.226Z,8.70
2018-12-24T22:43:09.174Z,8.70
2018-12-24T22:45:42.326Z,8.70
2018-12-24T22:48:15.659Z,8.70
2018-12-24T22:50:46.370Z,8.70
2018-12-24T22:53:21.714Z,8.70
2018-12-24T22:55:53.586Z,8.70
2018-12-24T22:58:24.585Z,8.70
2018-12-24T23:00:56.703Z,8.70
2018-12-24T23:03:30.209Z,8.70
2018-12-24T23:06:01.211Z,8.70
2018-12-24T23:08:33.063Z,8.80
2018-12-24T23:11:03.903Z,8.80
2018-12-24T23:13:35.545Z,8.70
2018-12-24T23:16:06.997Z,8.70
2018-12-24T23:18:39.249Z,8.80
2018-12-24T23:21:10.162Z,8.80
2018-12-24T23:23:40.714Z,8.80
2018-12-24T23:26:11.402Z,8.80
2018-12-24T23:28:45.831Z,8.80
2018-12-24T23:31:16.486Z,8.80
2018-12-24T23:33:47.357Z,8.80
2018-12-24T23:36:18.850Z,8.80
2018-12-24T23:38:52.485Z,8.80
2018-12-24T23:41:23.054Z,8.80
2018-12-24T23:43:53.905Z,8.80
2018-12-24T23:46:26.672Z,8.80
2018-12-24T23:48:58.993Z,8.80
2018-12-24T23:51:29.575Z,8.80
2018-12-24T23:54:02.889Z,8.80
2018-12-24T23:56:34.270Z,8.80
2018-12-24T23:59:05.157Z,8.80
